EYSA/SQQ METAR and TAF weather

Enter ICAO airport designator
Station Type Date Time Source
EYSA METAR 2019/08/21 22:50 UTC NOAA

EYSA 212250Z AUTO 27006KT 9999NDV NCD 13/12 Q1026


Station Type Date Time Source
EYSA Decoded METAR 2019/08/21 22:50 UTC NOAA

Station name not available
Aug 21, 2019 - 06:50 PM EDT / 2019.08.21 2250 UTC
Wind: from the W (270 degrees) at 7 MPH (6 KT):0
Temperature: 55 F (13 C)
Dew Point: 53 F (12 C)
Relative Humidity: 93%
Pressure (altimeter): 30.30 in. Hg (1026 hPa)
ob: EYSA 212250Z AUTO 27006KT 9999NDV NCD 13/12 Q1026
cycle: 23

Station Type Date Time Source
EYSA TAF 2019/08/16 06:03 UTC NOAA

TAF TAF EYSA 160501Z 1606/1618 17008KT CAVOK

Example: see airport list